createdAt,value
2018-08-11T00:00:16.405Z,100879.33
2018-08-11T00:02:43.356Z,100881.19
2018-08-11T00:05:10.310Z,100877.52
2018-08-11T00:07:37.261Z,100878.28
2018-08-11T00:10:07.082Z,100873.80
2018-08-11T00:12:36.082Z,100876.34
2018-08-11T00:15:04.247Z,100882.11
2018-08-11T00:17:31.276Z,100872.58
2018-08-11T00:19:58.190Z,100877.34
2018-08-11T00:22:25.190Z,100868.85
2018-08-11T00:24:53.141Z,100868.31
2018-08-11T00:27:20.106Z,100872.26
2018-08-11T00:29:47.045Z,100877.66
2018-08-11T00:32:13.967Z,100868.13
2018-08-11T00:34:40.858Z,100870.68
2018-08-11T00:37:08.862Z,100874.39
2018-08-11T00:39:35.797Z,100869.62
2018-08-11T00:42:02.756Z,100875.22
2018-08-11T00:44:29.718Z,100872.22
2018-08-11T00:46:56.665Z,100878.48
2018-08-11T00:49:25.682Z,100882.50
2018-08-11T00:51:53.672Z,100884.17
2018-08-11T00:54:20.573Z,100882.29
2018-08-11T00:56:47.466Z,100888.58
2018-08-11T00:59:14.418Z,100883.18
2018-08-11T01:01:41.383Z,100887.66
2018-08-11T01:04:10.254Z,100884.70
2018-08-11T01:06:37.133Z,100882.75
2018-08-11T01:09:07.053Z,100884.00
2018-08-11T01:11:34.102Z,100885.70
2018-08-11T01:14:02.740Z,100884.80
2018-08-11T01:16:29.670Z,100884.41
2018-08-11T01:18:58.261Z,100896.75
2018-08-11T01:21:25.229Z,100889.84
2018-08-11T01:23:52.171Z,100888.30
2018-08-11T01:26:19.173Z,100887.95
2018-08-11T01:28:46.102Z,100883.52
2018-08-11T01:31:13.056Z,100881.87
2018-08-11T01:33:41.770Z,100885.70
2018-08-11T01:36:08.683Z,100880.69
2018-08-11T01:38:35.586Z,100878.73
2018-08-11T01:41:02.538Z,100872.55
2018-08-11T01:43:29.585Z,100880.77
2018-08-11T01:45:56.506Z,100882.86
2018-08-11T01:48:23.405Z,100875.75
2018-08-11T01:50:50.354Z,100871.66
2018-08-11T01:53:17.313Z,100873.58
2018-08-11T01:55:44.790Z,100869.06
2018-08-11T01:58:11.698Z,100870.48
2018-08-11T02:00:38.617Z,100870.48
2018-08-11T02:03:05.569Z,100874.95
2018-08-11T02:05:34.261Z,100869.95
2018-08-11T02:08:02.273Z,100870.97
2018-08-11T02:10:29.162Z,100868.64
2018-08-11T02:12:56.053Z,100872.84
2018-08-11T02:15:23.006Z,100880.86
2018-08-11T02:17:49.965Z,100877.75
2018-08-11T02:20:18.348Z,100879.83
2018-08-11T02:22:46.238Z,100884.30
2018-08-11T02:25:13.241Z,100881.03
2018-08-11T02:27:40.230Z,100889.69
2018-08-11T02:30:11.102Z,100889.92
2018-08-11T02:32:38.360Z,100882.64
2018-08-11T02:35:05.928Z,100887.79
2018-08-11T02:37:40.574Z,100884.97
2018-08-11T02:40:09.197Z,100886.12
2018-08-11T02:42:36.160Z,100887.75
2018-08-11T02:45:03.554Z,100886.92
2018-08-11T02:47:31.378Z,100883.18
2018-08-11T02:49:58.334Z,100882.42
2018-08-11T02:52:25.308Z,100891.25
2018-08-11T02:54:52.823Z,100883.04
2018-08-11T02:57:19.711Z,100884.55
2018-08-11T02:59:46.669Z,100891.92
2018-08-11T03:02:13.625Z,100890.27
2018-08-11T03:04:41.315Z,100892.73
2018-08-11T03:07:08.254Z,100887.83
2018-08-11T03:09:35.217Z,100890.45
2018-08-11T03:12:02.220Z,100891.61
2018-08-11T03:14:30.159Z,100892.24
2018-08-11T03:16:58.863Z,100887.03
2018-08-11T03:19:25.822Z,100889.14
2018-08-11T03:21:52.873Z,100887.03
2018-08-11T03:24:20.334Z,100886.86
2018-08-11T03:26:47.332Z,100893.77
2018-08-11T03:29:14.279Z,100891.27
2018-08-11T03:31:45.707Z,100892.14
2018-08-11T03:34:13.327Z,100898.88
2018-08-11T03:36:40.270Z,100891.13
2018-08-11T03:39:08.777Z,100893.78
2018-08-11T03:41:35.725Z,100899.99
2018-08-11T03:44:02.672Z,100904.09
2018-08-11T03:46:29.614Z,100902.64
2018-08-11T03:48:57.362Z,100901.81
2018-08-11T03:51:24.258Z,100914.59
2018-08-11T03:53:51.222Z,100912.45
2018-08-11T03:56:18.164Z,100910.79
2018-08-11T03:58:46.165Z,100912.94
2018-08-11T04:01:15.886Z,100918.63
2018-08-11T04:03:43.333Z,100918.69
2018-08-11T04:06:10.331Z,100913.78
2018-08-11T04:08:37.249Z,100920.34
2018-08-11T04:11:04.394Z,100927.38
2018-08-11T04:13:31.884Z,100931.28
2018-08-11T04:15:59.041Z,100923.61
2018-08-11T04:18:26.010Z,100926.03
2018-08-11T04:20:52.965Z,100928.33
2018-08-11T04:23:19.942Z,100931.28
2018-08-11T04:25:47.922Z,100923.94
2018-08-11T04:28:14.865Z,100934.45
2018-08-11T04:30:41.845Z,100933.59
2018-08-11T04:33:08.789Z,100933.62
2018-08-11T04:35:36.350Z,100938.55
2018-08-11T04:38:03.369Z,100943.77
2018-08-11T04:40:30.278Z,100945.70
2018-08-11T04:42:57.250Z,100951.47
2018-08-11T04:45:24.162Z,100941.19
2018-08-11T04:47:55.274Z,100947.39
2018-08-11T04:50:22.281Z,100942.64
2018-08-11T04:52:49.251Z,100945.92
2018-08-11T04:55:16.937Z,100943.30
2018-08-11T04:57:43.894Z,100953.62
2018-08-11T05:00:10.858Z,100956.77
2018-08-11T05:02:37.805Z,100957.73
2018-08-11T05:05:05.366Z,100958.09
2018-08-11T05:07:32.325Z,100960.84
2018-08-11T05:09:59.303Z,100965.08
2018-08-11T05:12:26.251Z,100959.22
2018-08-11T05:14:53.268Z,100965.64
2018-08-11T05:17:20.165Z,100962.17
2018-08-11T05:19:47.343Z,100965.62
2018-08-11T05:22:14.278Z,100965.13
2018-08-11T05:24:42.257Z,100972.36
2018-08-11T05:27:09.174Z,100979.27
2018-08-11T05:29:36.921Z,100979.41
2018-08-11T05:32:05.779Z,100981.38
2018-08-11T05:34:36.630Z,100973.48
2018-08-11T05:37:08.417Z,100972.91
2018-08-11T05:39:35.355Z,100971.07
2018-08-11T05:42:02.311Z,100972.73
2018-08-11T05:44:29.350Z,100970.65
2018-08-11T05:46:56.254Z,100975.72
2018-08-11T05:49:23.198Z,100973.31
2018-08-11T05:51:50.179Z,100970.83
2018-08-11T05:54:17.942Z,100980.11
2018-08-11T05:56:45.406Z,100981.92
2018-08-11T05:59:15.929Z,100988.20
2018-08-11T06:01:42.886Z,100990.74
2018-08-11T06:04:09.850Z,100988.47
2018-08-11T06:06:37.429Z,100985.58
2018-08-11T06:09:08.998Z,100980.47
2018-08-11T06:11:38.729Z,100982.61
2018-08-11T06:14:06.385Z,100988.91
2018-08-11T06:16:35.014Z,100985.06
2018-08-11T06:19:01.942Z,100981.84
2018-08-11T06:21:28.905Z,100985.55
2018-08-11T06:23:59.342Z,100994.11
2018-08-11T06:26:26.347Z,100983.31
2018-08-11T06:28:53.258Z,100977.69
2018-08-11T06:31:21.376Z,100980.63
2018-08-11T06:33:48.195Z,100978.56
2018-08-11T06:36:15.379Z,100972.78
2018-08-11T06:38:42.313Z,100973.59
2018-08-11T06:41:09.274Z,100980.88
2018-08-11T06:43:36.250Z,100981.25
2018-08-11T06:46:03.909Z,100970.47
2018-08-11T06:48:30.872Z,100979.76
2018-08-11T06:50:58.446Z,100980.62
2018-08-11T06:53:25.450Z,100978.08
2018-08-11T06:55:52.356Z,100978.66
2018-08-11T06:58:20.509Z,100975.18
2018-08-11T07:00:47.407Z,100983.39
2018-08-11T07:03:15.378Z,100980.38
2018-08-11T07:05:42.333Z,100977.88
2018-08-11T07:08:09.252Z,100972.04
2018-08-11T07:10:36.169Z,100969.41
2018-08-11T07:13:03.253Z,100970.53
2018-08-11T07:15:30.190Z,100966.77
2018-08-11T07:17:57.113Z,100966.45
2018-08-11T07:20:24.037Z,100962.61
2018-08-11T07:22:50.914Z,100962.22
2018-08-11T07:25:17.881Z,100955.37
2018-08-11T07:27:44.843Z,100969.91
2018-08-11T07:30:11.941Z,100969.29
2018-08-11T07:32:38.855Z,100972.98
2018-08-11T07:35:05.813Z,100977.62
2018-08-11T07:37:32.770Z,100974.98
2018-08-11T07:39:59.742Z,100971.84
2018-08-11T07:42:26.682Z,100974.41
2018-08-11T07:44:53.638Z,100971.73
2018-08-11T07:47:20.593Z,100967.88
2018-08-11T07:49:47.611Z,100970.30
2018-08-11T07:52:14.486Z,100972.95
2018-08-11T07:54:41.406Z,100972.06
2018-08-11T07:57:08.309Z,100975.26
2018-08-11T07:59:35.284Z,100973.06
2018-08-11T08:02:02.245Z,100967.78
2018-08-11T08:04:30.026Z,100976.13
2018-08-11T08:06:56.987Z,100974.51
2018-08-11T08:09:23.952Z,100976.28
2018-08-11T08:11:50.897Z,100982.87
2018-08-11T08:14:17.814Z,100981.33
2018-08-11T08:16:44.731Z,100980.12
2018-08-11T08:19:11.661Z,100981.16
2018-08-11T08:21:38.639Z,100977.32
2018-08-11T08:24:06.498Z,100977.46
2018-08-11T08:26:33.605Z,100976.73
2018-08-11T08:29:00.427Z,100966.55
2018-08-11T08:31:27.425Z,100976.69
2018-08-11T08:33:54.454Z,100984.98
2018-08-11T08:36:21.272Z,100973.19
2018-08-11T08:38:48.233Z,100971.81
2018-08-11T08:41:15.302Z,100967.06
2018-08-11T08:43:42.261Z,100957.06
2018-08-11T08:46:10.249Z,100974.39
2018-08-11T08:48:37.166Z,100965.82
2018-08-11T08:51:04.087Z,100960.53
2018-08-11T08:53:31.013Z,100956.31
2018-08-11T08:55:57.986Z,100953.66
2018-08-11T08:58:24.915Z,100947.23
2018-08-11T09:00:51.890Z,100960.39
2018-08-11T09:03:18.886Z,100953.92
2018-08-11T09:05:45.829Z,100960.35
2018-08-11T09:08:12.787Z,100949.45
2018-08-11T09:10:39.714Z,100948.64
2018-08-11T09:13:06.700Z,100951.91
2018-08-11T09:15:33.639Z,100946.48
2018-08-11T09:18:00.591Z,100940.40
2018-08-11T09:20:27.525Z,100946.27
2018-08-11T09:22:54.424Z,100950.20
2018-08-11T09:25:21.414Z,100941.28
2018-08-11T09:27:48.326Z,100949.34
2018-08-11T09:30:16.062Z,100958.29
2018-08-11T09:32:42.954Z,100951.91
2018-08-11T09:35:10.038Z,100953.45
2018-08-11T09:37:36.975Z,100945.95
2018-08-11T09:40:04.322Z,100944.22
2018-08-11T09:42:31.262Z,100943.13
2018-08-11T09:44:58.186Z,100950.88
2018-08-11T09:47:25.112Z,100957.75
2018-08-11T09:49:52.606Z,100953.27
2018-08-11T09:52:19.521Z,100961.42
2018-08-11T09:54:46.485Z,100959.33
2018-08-11T09:57:14.056Z,100955.18
2018-08-11T09:59:41.010Z,100956.41
2018-08-11T10:02:13.810Z,100944.93
2018-08-11T10:04:42.650Z,100940.79
2018-08-11T10:07:09.570Z,100937.29
2018-08-11T10:09:36.545Z,100942.33
2018-08-11T10:12:03.505Z,100950.28
2018-08-11T10:14:30.422Z,100945.91
2018-08-11T10:16:57.294Z,100953.25
2018-08-11T10:19:24.277Z,100934.74
2018-08-11T10:21:51.234Z,100920.73
2018-08-11T10:24:20.074Z,100928.67
2018-08-11T10:26:47.596Z,100935.67
2018-08-11T10:29:14.546Z,100933.89
2018-08-11T10:31:41.470Z,100920.38
2018-08-11T10:34:08.389Z,100923.70
2018-08-11T10:36:36.159Z,100918.59
2018-08-11T10:39:05.238Z,100917.45
2018-08-11T10:41:32.215Z,100907.66
2018-08-11T10:43:59.174Z,100916.27
2018-08-11T10:46:26.250Z,100908.82
2018-08-11T10:48:54.121Z,100906.83
2018-08-11T10:51:21.236Z,100915.30
2018-08-11T10:53:48.156Z,100909.59
2018-08-11T10:56:15.074Z,100911.52
2018-08-11T10:58:42.002Z,100920.64
2018-08-11T11:01:08.907Z,100917.16
2018-08-11T11:03:35.833Z,100907.72
2018-08-11T11:06:02.848Z,100898.62
2018-08-11T11:08:29.895Z,100899.26
2018-08-11T11:10:57.649Z,100898.53
2018-08-11T11:13:25.180Z,100917.17
2018-08-11T11:15:54.133Z,100909.79
2018-08-11T11:18:21.593Z,100911.42
2018-08-11T11:20:48.577Z,100913.23
2018-08-11T11:23:15.510Z,100896.93
2018-08-11T11:25:42.456Z,100894.57
2018-08-11T11:28:10.141Z,100894.11
2018-08-11T11:30:37.109Z,100886.91
2018-08-11T11:33:04.133Z,100895.84
2018-08-11T11:35:31.097Z,100890.66
2018-08-11T11:37:58.065Z,100880.00
2018-08-11T11:40:25.070Z,100877.78
2018-08-11T11:42:52.158Z,100884.56
2018-08-11T11:45:19.194Z,100884.45
2018-08-11T11:47:46.116Z,100879.77
2018-08-11T11:50:13.057Z,100873.48
2018-08-11T11:52:41.649Z,100871.48
2018-08-11T11:55:08.605Z,100868.87
2018-08-11T11:57:35.593Z,100866.64
2018-08-11T12:00:02.631Z,100855.59
2018-08-11T12:02:29.498Z,100863.53
2018-08-11T12:04:56.450Z,100865.33
2018-08-11T12:07:23.434Z,100862.03
2018-08-11T12:09:50.415Z,100857.66
2018-08-11T12:12:17.309Z,100850.50
2018-08-11T12:14:44.253Z,100851.36
2018-08-11T12:17:11.301Z,100856.92
2018-08-11T12:19:39.120Z,100851.89
2018-08-11T12:22:06.069Z,100863.52
2018-08-11T12:24:33.070Z,100859.73
2018-08-11T12:26:59.998Z,100858.22
2018-08-11T12:29:26.971Z,100854.33
2018-08-11T12:31:53.913Z,100849.14
2018-08-11T12:34:20.897Z,100842.39
2018-08-11T12:36:47.822Z,100838.35
2018-08-11T12:39:14.782Z,100832.31
2018-08-11T12:41:41.740Z,100827.42
2018-08-11T12:44:09.213Z,100824.31
2018-08-11T12:46:36.180Z,100819.59
2018-08-11T12:49:03.643Z,100812.63
2018-08-11T12:51:30.569Z,100810.14
2018-08-11T12:53:57.598Z,100814.66
2018-08-11T12:56:24.485Z,100802.27
2018-08-11T12:58:51.477Z,100814.78
2018-08-11T13:01:18.405Z,100815.12
2018-08-11T13:03:45.365Z,100809.11
2018-08-11T13:06:14.162Z,100813.17
2018-08-11T13:08:41.119Z,100821.59
2018-08-11T13:11:08.106Z,100819.51
2018-08-11T13:13:35.106Z,100820.66
2018-08-11T13:16:02.212Z,100816.83
2018-08-11T13:18:29.149Z,100817.41
2018-08-11T13:20:56.126Z,100807.08
2018-08-11T13:23:23.062Z,100803.98
2018-08-11T13:25:50.062Z,100807.16
2018-08-11T13:28:17.037Z,100807.98
2018-08-11T13:30:43.973Z,100812.94
2018-08-11T13:33:10.921Z,100807.45
2018-08-11T13:35:37.982Z,100810.53
2018-08-11T13:38:05.758Z,100804.14
2018-08-11T13:40:32.719Z,100801.98
2018-08-11T13:42:59.633Z,100793.77
2018-08-11T13:45:26.639Z,100792.47
2018-08-11T13:47:53.618Z,100801.74
2018-08-11T13:50:20.530Z,100788.94
2018-08-11T13:52:47.613Z,100787.33
2018-08-11T13:55:14.631Z,100800.00
2018-08-11T13:57:42.722Z,100788.73
2018-08-11T14:00:10.093Z,100788.36
2018-08-11T14:02:37.114Z,100793.03
2018-08-11T14:05:04.775Z,100791.36
2018-08-11T14:07:31.815Z,100795.14
2018-08-11T14:09:58.759Z,100794.66
2018-08-11T14:12:26.770Z,100781.43
2018-08-11T14:14:53.699Z,100780.42
2018-08-11T14:17:20.646Z,100778.03
2018-08-11T14:19:47.618Z,100782.41
2018-08-11T14:22:15.598Z,100783.80
2018-08-11T14:24:42.533Z,100791.66
2018-08-11T14:27:09.477Z,100780.53
2018-08-11T14:29:36.470Z,100782.80
2018-08-11T14:32:03.501Z,100782.55
2018-08-11T14:34:30.514Z,100783.08
2018-08-11T14:36:57.429Z,100782.03
2018-08-11T14:39:24.390Z,100765.93
2018-08-11T14:41:51.346Z,100760.22
2018-08-11T14:44:18.362Z,100776.45
2018-08-11T14:46:45.322Z,100777.35
2018-08-11T14:49:12.226Z,100766.78
2018-08-11T14:51:39.195Z,100764.98
2018-08-11T14:54:06.147Z,100769.60
2018-08-11T14:56:33.109Z,100764.35
2018-08-11T14:59:00.043Z,100762.64
2018-08-11T15:01:27.004Z,100770.34
2018-08-11T15:03:53.992Z,100753.50
2018-08-11T15:06:21.531Z,100746.06
2018-08-11T15:08:48.493Z,100751.45
2018-08-11T15:11:16.306Z,100746.54
2018-08-11T15:13:43.219Z,100751.64
2018-08-11T15:16:10.210Z,100743.08
2018-08-11T15:18:37.295Z,100732.13
2018-08-11T15:21:04.235Z,100739.44
2018-08-11T15:23:31.231Z,100724.45
2018-08-11T15:25:58.113Z,100734.63
2018-08-11T15:28:25.074Z,100738.52
2018-08-11T15:30:52.051Z,100736.30
2018-08-11T15:33:19.030Z,100731.91
2018-08-11T15:35:46.770Z,100728.60
2018-08-11T15:38:14.252Z,100728.27
2018-08-11T15:40:41.194Z,100733.39
2018-08-11T15:43:08.170Z,100744.06
2018-08-11T15:45:35.106Z,100734.34
2018-08-11T15:48:02.061Z,100730.98
2018-08-11T15:50:29.042Z,100732.48
2018-08-11T15:52:55.997Z,100726.66
2018-08-11T15:55:22.942Z,100719.00
2018-08-11T15:57:49.912Z,100720.47
2018-08-11T16:00:17.862Z,100720.89
2018-08-11T16:02:44.850Z,100718.41
2018-08-11T16:05:11.806Z,100725.81
2018-08-11T16:07:38.771Z,100722.85
2018-08-11T16:10:06.337Z,100723.65
2018-08-11T16:12:33.309Z,100725.28
2018-08-11T16:15:00.282Z,100722.63
2018-08-11T16:17:27.403Z,100718.58
2018-08-11T16:19:54.354Z,100720.30
2018-08-11T16:22:21.333Z,100719.86
2018-08-11T16:24:49.330Z,100716.23
2018-08-11T16:27:16.320Z,100717.20
2018-08-11T16:29:43.218Z,100721.20
2018-08-11T16:32:10.254Z,100731.94
2018-08-11T16:34:37.190Z,100731.84
2018-08-11T16:37:04.128Z,100730.22
2018-08-11T16:39:31.119Z,100728.20
2018-08-11T16:41:58.010Z,100728.02
2018-08-11T16:44:25.006Z,100724.58
2018-08-11T16:46:51.957Z,100719.02
2018-08-11T16:49:18.885Z,100728.67
2018-08-11T16:51:45.845Z,100730.48
2018-08-11T16:54:12.786Z,100731.84
2018-08-11T16:56:39.822Z,100732.00
2018-08-11T16:59:06.859Z,100731.81
2018-08-11T17:01:33.812Z,100730.98
2018-08-11T17:04:01.777Z,100732.17
2018-08-11T17:06:28.704Z,100736.22
2018-08-11T17:08:56.701Z,100730.64
2018-08-11T17:11:23.636Z,100730.70
2018-08-11T17:13:50.598Z,100736.03
2018-08-11T17:16:17.637Z,100733.53
2018-08-11T17:18:45.503Z,100730.30
2018-08-11T17:21:11.776Z,100727.75
2018-08-11T17:23:38.806Z,100723.52
2018-08-11T17:26:05.761Z,100732.45
2018-08-11T17:28:32.696Z,100726.48
2018-08-11T17:30:59.649Z,100730.58
2018-08-11T17:33:26.592Z,100731.84
2018-08-11T17:35:53.533Z,100733.75
2018-08-11T17:38:20.478Z,100727.55
2018-08-11T17:40:47.499Z,100735.37
2018-08-11T17:43:14.385Z,100729.77
2018-08-11T17:45:41.370Z,100733.81
2018-08-11T17:48:08.394Z,100737.48
2018-08-11T17:50:35.898Z,100735.59
2018-08-11T17:53:03.366Z,100732.77
2018-08-11T17:55:30.381Z,100734.86
2018-08-11T17:57:57.385Z,100733.88
2018-08-11T18:00:24.319Z,100723.69
2018-08-11T18:02:51.890Z,100734.52
2018-08-11T18:05:18.900Z,100737.14
2018-08-11T18:07:45.785Z,100741.42
2018-08-11T18:10:12.698Z,100735.73
2018-08-11T18:12:39.653Z,100733.45
2018-08-11T18:15:06.607Z,100740.09
2018-08-11T18:17:33.657Z,100742.45
2018-08-11T18:20:01.338Z,100730.16
2018-08-11T18:22:28.266Z,100733.56
2018-08-11T18:24:55.247Z,100730.03
2018-08-11T18:27:22.194Z,100729.91
2018-08-11T18:29:49.120Z,100734.82
2018-08-11T18:32:16.831Z,100734.78
2018-08-11T18:34:43.843Z,100742.63
2018-08-11T18:37:10.726Z,100745.61
2018-08-11T18:39:37.721Z,100743.05
2018-08-11T18:42:04.673Z,100745.45
2018-08-11T18:44:31.614Z,100751.05
2018-08-11T18:46:58.566Z,100754.30
2018-08-11T18:49:25.547Z,100757.89
2018-08-11T18:51:52.561Z,100758.93
2018-08-11T18:54:19.578Z,100758.03
2018-08-11T18:56:46.505Z,100759.97
2018-08-11T18:59:13.459Z,100767.89
2018-08-11T19:01:41.433Z,100767.64
2018-08-11T19:04:08.881Z,100769.68
2018-08-11T19:06:35.846Z,100766.33
2018-08-11T19:09:04.875Z,100772.31
2018-08-11T19:11:31.847Z,100769.05
2018-08-11T19:13:58.757Z,100770.83
2018-08-11T19:16:25.642Z,100759.14
2018-08-11T19:18:52.596Z,100767.73
2018-08-11T19:21:19.545Z,100770.38
2018-08-11T19:23:47.481Z,100767.93
2018-08-11T19:26:14.357Z,100772.25
2018-08-11T19:28:41.243Z,100779.00
2018-08-11T19:31:08.203Z,100781.85
2018-08-11T19:33:35.177Z,100780.88
2018-08-11T19:36:02.352Z,100778.92
2018-08-11T19:38:29.278Z,100781.84
2018-08-11T19:40:56.318Z,100779.70
2018-08-11T19:43:23.215Z,100782.55
2018-08-11T19:45:51.178Z,100771.17
2018-08-11T19:48:18.155Z,100780.94
2018-08-11T19:50:45.090Z,100775.44
2018-08-11T19:53:12.041Z,100774.95
2018-08-11T19:55:39.021Z,100777.54
2018-08-11T19:58:05.977Z,100784.81
2018-08-11T20:00:33.013Z,100790.28
2018-08-11T20:02:59.982Z,100783.61
2018-08-11T20:05:26.971Z,100782.90
2018-08-11T20:07:53.946Z,100783.19
2018-08-11T20:10:20.859Z,100782.30
2018-08-11T20:12:47.893Z,100786.41
2018-08-11T20:15:14.768Z,100784.63
2018-08-11T20:17:41.741Z,100781.95
2018-08-11T20:20:09.713Z,100787.66
2018-08-11T20:22:36.698Z,100783.34
2018-08-11T20:25:04.789Z,100787.66
2018-08-11T20:27:31.764Z,100781.23
2018-08-11T20:29:58.673Z,100787.06
2018-08-11T20:32:25.621Z,100783.61
2018-08-11T20:34:52.578Z,100786.50
2018-08-11T20:37:19.615Z,100787.13
2018-08-11T20:39:46.525Z,100778.72
2018-08-11T20:42:13.453Z,100784.62
2018-08-11T20:44:40.465Z,100784.84
2018-08-11T20:47:07.490Z,100779.90
2018-08-11T20:49:34.462Z,100782.08
2018-08-11T20:52:01.363Z,100782.55
2018-08-11T20:54:28.263Z,100784.27
2018-08-11T20:56:55.271Z,100779.09
2018-08-11T20:59:22.173Z,100787.99
2018-08-11T21:01:49.099Z,100789.72
2018-08-11T21:04:16.053Z,100789.25
2018-08-11T21:06:43.025Z,100788.28
2018-08-11T21:09:11.623Z,100789.66
2018-08-11T21:11:38.614Z,100786.39
2018-08-11T21:14:05.953Z,100789.52
2018-08-11T21:16:33.970Z,100784.30
2018-08-11T21:19:01.971Z,100786.13
2018-08-11T21:21:28.886Z,100781.09
2018-08-11T21:23:55.866Z,100781.34
2018-08-11T21:26:22.697Z,100788.83
2018-08-11T21:28:49.656Z,100787.25
2018-08-11T21:31:16.606Z,100793.39
2018-08-11T21:33:43.754Z,100791.83
2018-08-11T21:36:10.721Z,100787.62
2018-08-11T21:38:37.702Z,100781.55
2018-08-11T21:41:04.650Z,100784.54
2018-08-11T21:43:31.607Z,100780.23
2018-08-11T21:45:58.525Z,100776.73
2018-08-11T21:48:26.022Z,100784.95
2018-08-11T21:50:53.481Z,100779.70
2018-08-11T21:53:20.458Z,100779.87
2018-08-11T21:55:47.374Z,100773.80
2018-08-11T21:58:14.249Z,100784.27
2018-08-11T22:00:55.667Z,100779.13
2018-08-11T22:03:22.628Z,100782.75
2018-08-11T22:05:49.797Z,100773.05
2018-08-11T22:08:16.729Z,100777.39
2018-08-11T22:10:43.691Z,100780.38
2018-08-11T22:13:11.494Z,100776.64
2018-08-11T22:15:38.446Z,100779.98
2018-08-11T22:18:05.355Z,100775.80
2018-08-11T22:20:32.397Z,100774.87
2018-08-11T22:22:59.289Z,100778.14
2018-08-11T22:25:26.255Z,100771.83
2018-08-11T22:27:53.201Z,100767.33
2018-08-11T22:30:20.950Z,100771.61
2018-08-11T22:32:47.866Z,100767.75
2018-08-11T22:35:14.814Z,100763.92
2018-08-11T22:37:41.770Z,100755.58
2018-08-11T22:40:08.730Z,100763.21
2018-08-11T22:42:36.481Z,100757.15
2018-08-11T22:45:06.562Z,100756.33
2018-08-11T22:47:34.029Z,100759.98
2018-08-11T22:50:01.592Z,100753.02
2018-08-11T22:52:28.515Z,100756.27
2018-08-11T22:54:55.502Z,100752.70
2018-08-11T22:57:22.425Z,100755.16
2018-08-11T22:59:49.400Z,100748.25
2018-08-11T23:02:17.085Z,100746.59
2018-08-11T23:04:44.250Z,100750.41
2018-08-11T23:07:11.243Z,100749.80
2018-08-11T23:09:38.170Z,100748.05
2018-08-11T23:12:06.543Z,100741.30
2018-08-11T23:14:33.498Z,100738.58
2018-08-11T23:17:01.110Z,100744.02
2018-08-11T23:19:29.045Z,100736.78
2018-08-11T23:21:57.049Z,100731.70
2018-08-11T23:24:24.031Z,100736.45
2018-08-11T23:26:50.977Z,100728.78
2018-08-11T23:29:17.934Z,100733.72
2018-08-11T23:31:44.843Z,100733.17
2018-08-11T23:34:12.883Z,100732.86
2018-08-11T23:36:39.769Z,100729.78
2018-08-11T23:39:07.569Z,100732.08
2018-08-11T23:41:34.633Z,100731.57
2018-08-11T23:44:01.666Z,100730.45
2018-08-11T23:46:28.518Z,100727.70
2018-08-11T23:48:55.493Z,100730.83
2018-08-11T23:51:22.470Z,100721.46
2018-08-11T23:53:50.466Z,100721.45
2018-08-11T23:56:17.369Z,100720.13
